This is the latest recevied weather packets stored in our database for station/object EA8DNP-14. If no packets are shown the sender has not sent any weather packets the latest 10 day(s).
| Time | Temp. | Humidity | Pressure | Rain* | Wind** | Luminosity | Snow |
|---|---|---|---|---|---|---|---|
| 1787692769 | 12.78° C | 70% | 903.2 hPa | - | - | - | - |
| 1787691869 | 13.33° C | 69% | 903.2 hPa | - | - | - | - |
| 1787690969 | 13.89° C | 69% | 903.2 hPa | - | - | - | - |
| 1787690069 | 13.89° C | 68% | 903.1 hPa | - | - | - | - |
| 1787689163 | 13.89° C | 67% | 903 hPa | - | - | - | - |
| 1787688263 | 13.89° C | 67% | 902.8 hPa | - | - | - | - |
| 1787687362 | 14.44° C | 66% | 902.6 hPa | - | - | - | - |
| 1787686462 | 14.44° C | 65% | 902.6 hPa | - | - | - | - |
| 1787685562 | 15° C | 64% | 902.5 hPa | - | - | - | - |
| 1787684662 | 15° C | 63% | 902.5 hPa | - | - | - | - |
| 1787683762 | 16.11° C | 62% | 902.4 hPa | - | - | - | - |
| 1787682865 | 16.67° C | 61% | 902.3 hPa | - | - | - | - |
| 1787681965 | 17.22° C | 59% | 902.3 hPa | - | - | - | - |
| 1787681064 | 17.78° C | 58% | 902.4 hPa | - | - | - | - |
| 1787680170 | 17.22° C | 58% | 902.4 hPa | - | - | - | - |
| 1787679270 | 18.33° C | 56% | 902.3 hPa | - | - | - | - |
| 1787678364 | 20° C | 52% | 902.2 hPa | - | - | - | - |
| 1787677470 | 23.33° C | 47% | 902.3 hPa | - | - | - | - |
| 1787676570 | 23.33° C | 46% | 902.3 hPa | - | - | - | - |
| 1787675660 | 23.89° C | 45% | 902.3 hPa | - | - | - | - |
| 1787674760 | 24.44° C | 45% | 902.2 hPa | - | - | - | - |
| 1787673860 | 24.44° C | 44% | 902.2 hPa | - | - | - | - |
| 1787672960 | 24.44° C | 45% | 902.1 hPa | - | - | - | - |
| 1787672060 | 25.56° C | 43% | 902.2 hPa | - | - | - | - |
| 1787671163 | 25° C | 44% | 902.2 hPa | - | - | - | - |
* Rain since midnight (hover to see other rain measurements)
** Current wind speed in m/s (hover to see current wind gust speed)